x

Lake St Clair (45147) Weather Station

11:00pm - Sat 23rd Sep 2017 All times are CDT. -5 hours from GMT.

  • Wind
  • Sea Temp 73°f
  • Air Temp 74°f
  • Sea Pressure 1019.6mb
  • Lake St Clair
  • Lake St Clair

More Historic Weather Station data

Upgrade to MSW Pro to gain access to the past 30 days of data for over 8000 Wavebouys and Weather Stations around the globe.

Join

Comparision Forecast

View Surf forecast
   
Sat 09/23 11:00pm  -  2 mph 1019.6mb 73f 74f
10:00pm 2 4 mph 1019.4mb 74f 74f
9:00pm 4 4 mph 1019.1mb 74f 75f
8:00pm 7 7 mph 1018.9mb 75f 76f
7:00pm 4 7 mph 1018.7mb 75f 78f
6:00pm 2 2 mph 1018.3mb 76f 81f
5:00pm 2 2 mph 1018.4mb 76f 83f
4:00pm  -  0 mph 1018.6mb 76f 85f
3:00pm 2 4 mph 1019.1mb 76f 81f
2:00pm 4 4 mph 1019.7mb 74f 77f
1:00pm 4 4 mph 1020.3mb 74f 75f
12:00pm 4 4 mph 1020.6mb 73f 74f
11:00am 4 4 mph 1020.6mb 73f 73f
10:00am 4 4 mph 1020.4mb 71f 73f
9:00am 4 4 mph 1020.1mb 72f 73f
8:00am 7 7 mph 1020.1mb 71f 71f
7:00am 2 2 mph 1019.7mb 70f 71f
6:00am 2 2 mph 1019.1mb 60f 71f
5:00am  -  mph 1018.7mb 60f 71f
4:00am  -  2 mph 1018.1mb 63f 71f
3:00am 2 4 mph 1017.8mb 62f 71f
2:00am 4 4 mph 1017.8mb 55f 71f
1:00am 2 4 mph 1018.2mb 59f 71f
12:00am 2 2 mph 1018.5mb 71f 71f
Fri 09/22 11:00pm 2 2 mph 1018.3mb 71f 71f
10:00pm 2 4 mph 1018.3mb 71f 72f
9:00pm 7 7 mph 1018.1mb 72f 72f
8:00pm 9 9 mph 1017.9mb 73f 74f
7:00pm 7 7 mph 1017.8mb 74f 75f
6:00pm 7 7 mph 1017.9mb 74f 77f
5:00pm 4 4 mph 1017.7mb 76f 80f
4:00pm 2 2 mph 1017.7mb 76f 81f
3:00pm 2 2 mph 1018mb 75f 80f
2:00pm 2 4 mph 1018.5mb 74f 79f
1:00pm 2 2 mph 1019mb 74f 76f
12:00pm 2 2 mph 1019.4mb 72f 74f
11:00am 4 4 mph 1019.7mb 71f 72f
10:00am 2 4 mph 1019.6mb 70f 71f
9:00am 4 7 mph 1019.7mb 70f 71f
8:00am 9 9 mph 1019.7mb 69f 71f
7:00am 7 9 mph 1019.6mb 69f 71f
6:00am 7 7 mph 1019.3mb 69f 70f
5:00am 4 7 mph 1019.1mb 70f 70f
4:00am 4 4 mph 1018.9mb 70f 71f
3:00am 4 4 mph 1018.6mb 70f 71f
2:00am 2 4 mph 1018.8mb 70f 70f
1:00am 2 2 mph 1018.4mb 70f 71f
12:00am 4 7 mph 1018.4mb 70f 71f
Thu 09/21 11:00pm 7 9 mph 1018mb 70f 71f
10:00pm 7 9 mph 1018mb 70f 71f
9:00pm 4 4 mph 1018.3mb 70f 71f
8:00pm 7 9 mph 1018.1mb 70f 73f
7:00pm 7 9 mph 1017.6mb 71f 73f
6:00pm 9 9 mph 1017.1mb 71f 74f
5:00pm 9 11 mph 1016.7mb 71f 75f
4:00pm 11 13 mph 1016.5mb 71f 76f
3:00pm 11 11 mph 1017mb 71f 76f
2:00pm 9 9 mph 1017.2mb 71f 75f
11:00am 4 7 mph 1018.3mb 70f 72f
10:00am 4 4 mph 1018.4mb 69f 73f
9:00am 4 7 mph 1018.1mb 69f 71f
8:00am 9 9 mph 1017.9mb 69f 71f
7:00am 9 9 mph 1017.6mb 69f 70f
6:00am 7 9 mph 1017.5mb 69f 70f
5:00am 7 9 mph 1017.3mb 69f 70f
4:00am 7 9 mph 1017.1mb 69f 70f
3:00am 7 9 mph 1016.9mb 69f 70f
2:00am 2 4 mph 1017.3mb 70f 69f
1:00am  -  2 mph 1017.5mb 70f 70f
12:00am 4 7 mph 1016.5mb 70f 70f
Wed 09/20 11:00pm 9 11 mph 1015.6mb 70f 70f
10:00pm 9 11 mph 1015.4mb 70f 71f
9:00pm 9 11 mph 1015.4mb 71f 71f
8:00pm 9 9 mph 1015.1mb 71f 72f
7:00pm 4 7 mph 1014.9mb 72f 73f
6:00pm 4 4 mph 1014.7mb 72f 74f
5:00pm 4 7 mph 1014.7mb 72f 75f
4:00pm 4 4 mph 1014.6mb 73f 75f
3:00pm 4 4 mph 1014.7mb 72f 75f
2:00pm 2 4 mph 1015.1mb 71f 74f
1:00pm 7 7 mph 1015mb 71f 73f
12:00pm 7 7 mph 1015.5mb 70f 72f
11:00am 7 9 mph 1015.6mb 69f 71f
10:00am 7 9 mph 1015.8mb 69f 70f
9:00am 2 4 mph 1016.1mb 69f 70f
8:00am 4 4 mph 1015.9mb 69f 70f
7:00am 2 4 mph 1015.9mb 69f 69f
6:00am 2 4 mph 1015mb 69f 69f